Time;durP1;ratioP1;P1;durP2;ratioP2;P2;SDS_P1;SDS_P2;PMS_P1;PMS_P2;Temp;Humidity;BMP_temperature;BMP_pressure;BME280_temperature;BME280_humidity;BME280_pressure;Samples;Min_cycle;Max_cycle;Signal;HPM_P1;HPM_P2
2023/10/18 00:01:01;;;;;;;;;12.00;10.67;;;;;14.92;100.00;100293.84;5058496;28;45450;-73
2023/10/18 00:03:31;;;;;;;;;12.67;9.00;;;;;14.95;100.00;100293.78;5058716;28;46653;-73
2023/10/18 00:06:11;;;;;;;;;12.00;9.00;;;;;14.94;100.00;100287.59;5058408;28;45408;-73
2023/10/18 00:08:39;;;;;;;;;11.67;10.67;;;;;14.98;100.00;100284.91;5058601;28;45388;-73
2023/10/18 00:11:05;;;;;;;;;12.00;12.00;;;;;15.01;100.00;100280.38;5058433;28;45657;-72
2023/10/18 00:13:31;;;;;;;;;9.00;9.00;;;;;15.04;100.00;100282.13;5058335;28;46588;-72
2023/10/18 00:16:04;;;;;;;;;10.00;10.00;;;;;15.06;100.00;100286.50;5058150;28;45170;-72
2023/10/18 00:18:29;;;;;;;;;11.33;10.00;;;;;15.05;100.00;100275.91;5057740;28;45972;-72
2023/10/18 00:21:03;;;;;;;;;10.33;9.67;;;;;15.08;100.00;100284.72;5058733;28;45526;-72
2023/10/18 00:23:31;;;;;;;;;15.33;11.33;;;;;15.06;100.00;100281.19;5056898;28;46469;-72
2023/10/18 00:25:57;;;;;;;;;8.00;8.00;;;;;15.09;100.00;100273.19;5052652;28;45265;-73
2023/10/18 00:28:22;;;;;;;;;10.33;9.33;;;;;15.08;100.00;100265.25;5058385;28;45367;-72
2023/10/18 00:30:50;;;;;;;;;11.33;11.33;;;;;15.08;100.00;100266.13;5058138;28;45179;-72
2023/10/18 00:33:17;;;;;;;;;12.00;9.67;;;;;15.07;100.00;100274.97;5058107;28;46440;-72
2023/10/18 00:35:43;;;;;;;;;12.67;8.00;;;;;15.10;100.00;100266.06;5058070;28;45417;-73
2023/10/18 00:38:14;;;;;;;;;8.33;8.33;;;;;15.07;100.00;100251.03;5058237;28;45385;-72
2023/10/18 00:40:40;;;;;;;;;8.67;8.33;;;;;15.08;100.00;100255.47;5058065;28;45227;-72
2023/10/18 00:43:09;;;;;;;;;8.33;8.33;;;;;15.07;100.00;100239.53;5057910;28;46731;-72
2023/10/18 00:45:40;;;;;;;;;11.00;9.00;;;;;15.08;100.00;100257.25;5057699;28;45525;-72
2023/10/18 00:48:06;;;;;;;;;14.00;11.00;;;;;15.07;100.00;100255.47;5056664;28;45432;-72
2023/10/18 00:50:34;;;;;;;;;12.67;12.33;;;;;15.05;100.00;100239.56;5057909;28;45441;-72
2023/10/18 00:53:00;;;;;;;;;16.00;13.00;;;;;15.03;100.00;100233.41;5056035;28;45537;-72
2023/10/18 00:55:26;;;;;;;;;8.67;8.67;;;;;15.04;100.00;100243.13;5057581;28;45287;-72
2023/10/18 00:57:51;;;;;;;;;12.00;11.33;;;;;15.05;100.00;100241.34;5057228;28;57959;-72
2023/10/18 01:00:19;;;;;;;;;8.67;8.33;;;;;15.04;100.00;100227.19;5071720;28;64949;-72
2023/10/18 01:02:48;;;;;;;;;10.33;7.67;;;;;15.04;100.00;100229.84;5057464;28;47572;-72
2023/10/18 01:05:15;;;;;;;;;11.00;11.00;;;;;15.10;100.00;100232.38;5057436;28;45538;-72
2023/10/18 01:07:41;;;;;;;;;12.00;10.67;;;;;15.09;100.00;100222.66;5057478;28;45426;-72
2023/10/18 01:10:09;;;;;;;;;11.00;9.67;;;;;15.08;100.00;100220.91;5057549;28;45530;-72
2023/10/18 01:12:34;;;;;;;;;10.33;10.33;;;;;15.06;100.00;100217.38;5057408;28;46502;-72
2023/10/18 01:15:00;;;;;;;;;11.33;10.00;;;;;15.04;100.00;100218.31;5057037;28;45496;-72
2023/10/18 01:17:26;;;;;;;;;10.00;10.00;;;;;15.03;100.00;100206.81;5057242;28;45458;-72
2023/10/18 01:19:53;;;;;;;;;10.67;8.67;;;;;15.00;100.00;100193.56;5057563;28;45848;-72
2023/10/18 01:22:19;;;;;;;;;10.33;8.00;;;;;14.98;100.00;100194.50;5056876;28;47780;-72
2023/10/18 01:24:45;;;;;;;;;7.67;5.33;;;;;14.97;100.00;100187.41;5050669;28;45364;-72
2023/10/18 01:27:12;;;;;;;;;9.33;8.33;;;;;14.95;100.00;100184.78;5057055;28;45364;-72
2023/10/18 01:29:38;;;;;;;;;10.33;9.00;;;;;14.95;100.00;100184.78;5057457;28;45396;-72
2023/10/18 01:32:04;;;;;;;;;8.67;8.67;;;;;14.90;100.00;100174.22;5057045;28;46478;-73
2023/10/18 01:34:31;;;;;;;;;9.33;6.67;;;;;14.89;100.00;100174.25;5072516;28;45515;-73
2023/10/18 01:36:59;;;;;;;;;11.00;11.00;;;;;14.87;100.00;100170.78;5055856;28;45594;-72
2023/10/18 01:39:29;;;;;;;;;11.00;11.00;;;;;14.81;100.00;100162.91;5057100;28;45469;-72
2023/10/18 01:41:54;;;;;;;;;7.00;7.00;;;;;14.78;100.00;100157.63;5056523;28;47762;-72
2023/10/18 01:44:38;;;;;;;;;12.33;9.67;;;;;14.73;100.00;100163.00;5057203;28;45667;-72
2023/10/18 01:47:07;;;;;;;;;10.00;8.00;;;;;14.71;100.00;100164.84;5057139;28;45339;-72
2023/10/18 01:49:46;;;;;;;;;14.33;11.00;;;;;14.69;100.00;100166.63;5056750;28;45606;-72
2023/10/18 01:52:12;;;;;;;;;10.00;9.00;;;;;14.67;100.00;100153.38;5056641;28;46632;-73
2023/10/18 01:54:38;;;;;;;;;10.00;8.33;;;;;14.63;100.00;100149.00;5056805;28;45363;-73
2023/10/18 01:57:06;;;;;;;;;10.67;10.00;;;;;14.62;100.00;100149.91;5056948;28;45486;-72
2023/10/18 01:59:34;;;;;;;;;13.33;9.67;;;;;14.63;100.00;100146.34;5056581;28;45581;-73
2023/10/18 02:02:00;;;;;;;;;11.00;9.33;;;;;14.65;100.00;100151.66;5056769;28;46643;-72
2023/10/18 02:04:26;;;;;;;;;10.67;10.00;;;;;14.63;100.00;100143.69;5056509;28;45202;-72
2023/10/18 02:06:57;;;;;;;;;10.33;9.33;;;;;14.63;100.00;100135.72;5056813;28;45295;-72
2023/10/18 02:09:23;;;;;;;;;11.33;10.33;;;;;14.64;100.00;100131.28;5056812;28;45462;-72
2023/10/18 02:11:48;;;;;;;;;15.00;10.00;;;;;14.67;100.00;100131.22;5056397;28;46586;-72
2023/10/18 02:14:14;;;;;;;;;12.33;11.00;;;;;14.65;100.00;100120.66;5056127;28;58459;-72
2023/10/18 02:16:41;;;;;;;;;9.67;9.67;;;;;14.63;100.00;100126.88;5154592;23;45365;-73
2023/10/18 02:19:08;;;;;;;;;16.67;11.00;;;;;14.60;100.00;100119.84;5039078;28;45255;-73
2023/10/18 02:21:34;;;;;;;;;12.00;10.00;;;;;14.57;100.00;100117.22;5036013;28;47474;-73
2023/10/18 02:24:00;;;;;;;;;12.00;9.33;;;;;14.59;100.00;100098.59;5032886;28;45371;-73
2023/10/18 02:26:31;;;;;;;;;9.00;9.00;;;;;14.58;100.00;100091.53;5035097;28;45448;-74
2023/10/18 02:29:05;;;;;;;;;11.00;9.00;;;;;14.58;100.00;100089.75;5022717;28;45504;-73
2023/10/18 02:31:33;;;;;;;;;12.00;10.33;;;;;14.57;100.00;100092.44;5023369;28;46640;-74
2023/10/18 02:33:58;;;;;;;;;9.67;9.67;;;;;14.57;100.00;100085.34;5028391;28;45314;-74
2023/10/18 02:36:38;;;;;;;;;12.00;10.00;;;;;14.59;100.00;100074.69;5032401;28;45228;-73
2023/10/18 02:39:04;;;;;;;;;10.00;7.33;;;;;14.59;100.00;100070.25;5036523;28;45239;-73
2023/10/18 02:41:29;;;;;;;;;7.00;7.00;;;;;14.60;100.00;100072.03;5035709;28;47851;-73
2023/10/18 02:43:55;;;;;;;;;13.67;10.00;;;;;14.60;100.00;100065.84;5036097;28;45358;-74
2023/10/18 02:46:24;;;;;;;;;9.33;8.67;;;;;14.60;100.00;100066.72;5022740;28;45376;-73
2023/10/18 02:48:57;;;;;;;;;10.00;10.00;;;;;14.60;100.00;100064.03;5034499;28;45452;-74
2023/10/18 02:51:26;;;;;;;;;6.67;6.67;;;;;14.60;100.00;100060.50;5033573;28;47637;-74
2023/10/18 02:53:53;;;;;;;;;6.67;6.67;;;;;14.56;100.00;100062.34;5036265;28;45355;-73
2023/10/18 02:56:32;;;;;;;;;9.00;9.00;;;;;14.57;100.00;100056.13;5036054;28;45230;-72
2023/10/18 02:58:58;;;;;;;;;7.00;7.00;;;;;14.54;100.00;100053.53;5035862;28;45309;-74
2023/10/18 03:01:25;;;;;;;;;9.67;6.00;;;;;14.50;100.00;100046.50;5035441;28;46625;-74
2023/10/18 03:03:55;;;;;;;;;9.67;9.00;;;;;14.48;100.00;100035.03;5030551;28;45279;-74
2023/10/18 03:06:24;;;;;;;;;6.00;6.00;;;;;14.40;100.00;100028.94;5036258;28;45227;-74
2023/10/18 03:08:50;;;;;;;;;9.33;7.33;;;;;14.39;100.00;100029.84;5036281;28;47085;-73
2023/10/18 03:11:17;;;;;;;;;10.00;7.33;;;;;14.43;100.00;100020.91;5035809;28;47341;-74
2023/10/18 03:13:43;;;;;;;;;10.00;6.00;;;;;14.43;100.00;100015.59;5035338;28;45174;-73
2023/10/18 03:18:37;;;;;;;;;9.00;9.00;;;;;14.43;100.00;99994.34;5035796;28;45371;-73
2023/10/18 03:21:08;;;;;;;;;7.67;7.67;;;;;14.42;100.00;99997.91;5035499;28;47308;-74
2023/10/18 03:23:44;;;;;;;;;10.00;7.00;;;;;14.41;100.00;99997.03;5039243;28;45286;-74
2023/10/18 03:26:11;;;;;;;;;12.33;7.67;;;;;14.41;100.00;100009.44;5030221;28;45271;-73
2023/10/18 03:28:40;;;;;;;;;6.00;6.00;;;;;14.42;100.00;100028.00;5039162;28;45563;-74
2023/10/18 03:31:22;;;;;;;;;7.67;7.67;;;;;14.48;100.00;100024.41;5039406;28;46613;-74
2023/10/18 03:33:50;;;;;;;;;9.33;9.33;;;;;14.47;100.00;100017.34;5034004;28;45456;-74
2023/10/18 03:36:21;;;;;;;;;9.33;9.33;;;;;14.48;100.00;100019.09;5034124;28;45293;-73
2023/10/18 03:38:54;;;;;;;;;9.00;9.00;;;;;14.50;100.00;100024.38;5039044;28;45587;-73
2023/10/18 03:41:25;;;;;;;;;9.33;7.67;;;;;14.53;100.00;100024.31;5038236;28;46452;-73
2023/10/18 03:44:03;;;;;;;;;10.00;10.00;;;;;14.56;100.00;100026.94;5038976;28;45457;-74
2023/10/18 03:46:38;;;;;;;;;10.67;8.33;;;;;14.57;100.00;100021.59;5038120;28;45464;-73
2023/10/18 03:49:17;;;;;;;;;11.67;10.00;;;;;14.60;100.00;100018.88;5035486;28;45426;-73
2023/10/18 03:51:46;;;;;;;;;15.33;11.00;;;;;14.63;100.00;100024.13;5027630;28;46720;-74
2023/10/18 03:54:14;;;;;;;;;11.00;9.33;;;;;14.65;100.00;100013.50;5038694;28;45274;-74
2023/10/18 03:56:42;;;;;;;;;10.33;7.33;;;;;14.64;100.00;100009.06;5028622;28;45386;-74
2023/10/18 03:59:20;;;;;;;;;7.33;6.33;;;;;14.65;100.00;100001.06;5038524;28;45397;-74
2023/10/18 04:04:38;;;;;;;;;11.00;10.00;;;;;14.72;100.00;99993.84;5033631;28;45238;-74
2023/10/18 04:07:12;;;;;;;;;10.67;7.33;;;;;14.73;100.00;99984.09;5038516;28;45659;-73
2023/10/18 04:12:27;;;;;;;;;14.33;9.00;;;;;14.76;100.00;99986.72;5038307;28;46418;-74
2023/10/18 04:14:55;;;;;;;;;11.67;8.33;;;;;14.77;100.00;99983.13;5038061;28;45199;-73
2023/10/18 04:17:36;;;;;;;;;10.00;7.67;;;;;14.80;100.00;99978.63;5020389;28;45396;-73
2023/10/18 04:22:36;;;;;;;;;12.67;7.67;;;;;14.88;100.00;99973.16;5037936;28;45621;-74
2023/10/18 04:25:09;;;;;;;;;13.33;12.33;;;;;14.90;100.00;99980.19;5051165;28;45320;-74
2023/10/18 04:27:36;;;;;;;;;12.00;11.00;;;;;14.94;100.00;99981.00;5038431;28;45304;-74
2023/10/18 04:30:04;;;;;;;;;12.67;9.67;;;;;14.98;100.00;99987.16;5038046;28;45235;-74
2023/10/18 04:32:29;;;;;;;;;10.67;10.00;;;;;15.01;100.00;99984.41;5037844;28;47441;-74
2023/10/18 04:34:56;;;;;;;;;11.00;8.33;;;;;15.03;100.00;99971.97;5037112;28;68673;-73
2023/10/18 04:37:22;;;;;;;;;12.67;10.33;;;;;15.07;100.00;99963.88;5032814;28;45292;-74
2023/10/18 04:39:48;;;;;;;;;8.00;6.00;;;;;15.08;100.00;99955.03;5038304;28;45427;-74
2023/10/18 04:42:17;;;;;;;;;10.33;8.67;;;;;15.11;100.00;99946.09;5037734;28;46456;-74
2023/10/18 04:44:47;;;;;;;;;10.00;6.00;;;;;15.13;100.00;99938.97;5037584;28;45294;-74
2023/10/18 04:47:17;;;;;;;;;9.33;9.33;;;;;15.14;100.00;99930.09;5037912;28;45385;-74
2023/10/18 04:50:00;;;;;;;;;9.33;8.00;;;;;15.15;100.00;99924.72;5037102;28;45524;-74
2023/10/18 04:52:40;;;;;;;;;9.33;9.33;;;;;15.16;100.00;99915.81;5037611;28;47470;-74
2023/10/18 04:55:08;;;;;;;;;12.00;10.33;;;;;15.19;100.00;99920.22;5037683;28;45300;-74
2023/10/18 04:57:38;;;;;;;;;12.00;9.67;;;;;15.20;100.00;99928.16;5037458;28;45440;-74
2023/10/18 05:00:25;;;;;;;;;10.00;9.33;;;;;15.20;100.00;99919.31;5037736;28;45470;-74
2023/10/18 05:02:58;;;;;;;;;10.00;8.33;;;;;15.22;100.00;99913.94;5032247;28;47607;-74
2023/10/18 05:05:27;;;;;;;;;12.00;11.00;;;;;15.20;100.00;99914.84;5037319;28;45450;-75
2023/10/18 05:07:55;;;;;;;;;12.33;11.00;;;;;15.21;100.00;99923.72;5037340;28;45524;-74
2023/10/18 05:10:21;;;;;;;;;9.33;8.33;;;;;15.21;100.00;99915.72;5032409;28;45538;-74
2023/10/18 05:13:19;;;;;;;;;11.00;10.00;;;;;15.16;100.00;99902.53;5036656;28;46246;-74
2023/10/18 05:15:33;;;;;;;;;8.33;8.33;;;;;15.17;100.00;99896.28;5036347;28;45452;-74
2023/10/18 05:18:14;;;;;;;;;10.67;8.00;;;;;15.17;100.00;99898.97;5036976;28;45254;-74
2023/10/18 05:21:07;;;;;;;;;14.00;10.67;;;;;15.18;100.00;99900.72;5036467;28;45446;-74
2023/10/18 05:23:26;;;;;;;;;14.33;13.00;;;;;15.16;100.00;99905.19;5037220;28;47066;-74
2023/10/18 05:28:52;;;;;;;;;10.33;10.33;;;;;15.15;100.00;99890.16;5011072;28;45644;-73
2023/10/18 05:34:04;;;;;;;;;8.67;8.67;;;;;15.16;100.00;99894.56;5036524;28;45240;-74
2023/10/18 05:36:34;;;;;;;;;13.00;11.00;;;;;15.18;100.00;99900.72;5036640;28;45325;-75
2023/10/18 05:41:49;;;;;;;;;15.00;10.33;;;;;15.16;100.00;99889.22;5036661;28;45439;-73
2023/10/18 05:44:15;;;;;;;;;11.00;8.33;;;;;15.20;100.00;99885.59;5036680;28;47533;-73
2023/10/18 05:46:41;;;;;;;;;12.33;11.00;;;;;15.27;100.00;99882.78;5036010;28;57448;-73
2023/10/18 05:49:15;;;;;;;;;12.33;11.00;;;;;15.30;100.00;99893.38;5036396;28;45525;-73
2023/10/18 05:51:53;;;;;;;;;12.33;12.00;;;;;15.33;100.00;99887.97;5028017;28;45584;-73
2023/10/18 05:54:22;;;;;;;;;10.00;10.00;;;;;15.35;100.00;99899.47;5023871;28;46709;-76
2023/10/18 05:56:52;;;;;;;;;12.33;8.00;;;;;15.41;100.00;99897.53;5020361;28;45428;-76
2023/10/18 06:01:47;;;;;;;;;14.00;12.00;;;;;15.44;100.00;99875.28;5021639;28;45585;-73
2023/10/18 06:04:14;;;;;;;;;12.00;12.00;;;;;15.45;100.00;99883.25;5027276;28;46480;-74
2023/10/18 06:06:39;;;;;;;;;12.00;12.00;;;;;15.50;100.00;99887.56;5022985;28;45511;-74
2023/10/18 06:09:14;;;;;;;;;13.67;12.67;;;;;15.48;100.00;99882.28;5001797;28;45398;-73
2023/10/18 06:11:39;;;;;;;;;11.00;8.67;;;;;15.51;100.00;99882.22;5026530;28;45535;-76
2023/10/18 06:14:05;;;;;;;;;30.75;27.00;;;;;15.48;100.00;99882.28;5004341;28;66617;-73
2023/10/18 06:16:34;;;;;;;;;31.00;29.75;;;;;15.46;100.00;99879.66;5020448;28;45513;-72
2023/10/18 06:19:07;;;;;;;;;22.00;21.75;;;;;15.44;100.00;99884.13;5032945;28;45504;-73
2023/10/18 06:21:57;;;;;;;;;14.00;12.67;;;;;15.47;100.00;99888.53;5032720;28;45706;-73
2023/10/18 06:24:18;;;;;;;;;13.67;11.00;;;;;15.46;100.00;99881.47;5036579;28;45496;-73
2023/10/18 06:26:44;;;;;;;;;14.33;11.33;;;;;15.41;100.00;99891.34;5040816;28;62817;-72
2023/10/18 06:29:11;;;;;;;;;10.00;10.00;;;;;15.35;100.00;99876.41;5035181;28;45244;-72
2023/10/18 06:31:40;;;;;;;;;11.00;11.00;;;;;15.33;100.00;99870.22;5021961;28;47074;-71
2023/10/18 06:34:10;;;;;;;;;9.33;9.33;;;;;15.29;100.00;99844.63;5016727;28;47268;-72
2023/10/18 06:36:38;;;;;;;;;11.00;9.33;;;;;15.26;100.00;99842.03;5025339;28;45901;-72
2023/10/18 06:39:05;;;;;;;;;11.00;11.00;;;;;15.24;100.00;99835.03;5025073;28;46925;-71
2023/10/18 06:41:31;;;;;;;;;13.33;13.33;;;;;15.19;100.00;99843.97;5025350;28;45723;-72
2023/10/18 06:43:58;;;;;;;;;12.67;11.33;;;;;15.12;100.00;99852.09;5022385;28;46186;-70
2023/10/18 06:46:27;;;;;;;;;13.67;11.00;;;;;14.99;100.00;99854.19;5020133;28;45503;-70
2023/10/18 06:48:55;;;;;;;;;10.67;10.00;;;;;14.84;100.00;99850.09;5026329;28;45724;-71
2023/10/18 06:51:30;;;;;;;;;13.67;12.33;;;;;14.77;100.00;99844.94;5031240;28;45393;-71
2023/10/18 06:54:05;;;;;;;;;14.67;11.67;;;;;14.66;100.00;99846.06;5028166;28;47014;-72
2023/10/18 06:56:39;;;;;;;;;11.67;11.67;;;;;14.65;100.00;99844.31;5023577;28;45424;-72
2023/10/18 06:59:07;;;;;;;;;16.00;12.33;;;;;14.62;100.00;99852.34;5025687;28;45509;-70
2023/10/18 07:01:41;;;;;;;;;13.33;11.33;;;;;14.62;100.00;99852.34;5019957;28;45609;-71
2023/10/18 07:04:15;;;;;;;;;14.00;12.33;;;;;14.65;100.00;99841.66;5028436;28;45528;-72
2023/10/18 07:06:44;;;;;;;;;8.33;8.33;;;;;14.74;100.00;99823.75;5026418;28;45577;-71
2023/10/18 07:09:24;;;;;;;;;12.67;11.67;;;;;14.81;100.00;99815.63;5035500;28;45944;-72
2023/10/18 07:11:50;;;;;;;;;11.00;11.00;;;;;14.87;100.00;99794.22;5027307;28;45480;-71
2023/10/18 07:14:16;;;;;;;;;12.33;10.33;;;;;15.00;100.00;99786.81;5035823;28;45783;-71
2023/10/18 07:16:42;;;;;;;;;12.00;10.67;;;;;15.10;100.00;99780.38;5032529;28;45953;-72
2023/10/18 07:21:52;;;;;;;;;14.00;10.67;;;;;15.37;100.00;99800.09;5037103;28;45520;-72
2023/10/18 07:24:18;;;;;;;;;11.67;11.67;;;;;15.45;100.00;99800.78;5044658;28;46584;-72
2023/10/18 07:26:43;;;;;;;;;12.33;11.00;;;;;15.51;100.00;99813.06;5038196;28;45539;-72
2023/10/18 07:29:09;;;;;;;;;13.33;12.33;;;;;15.57;100.00;99809.34;5036678;28;45523;-72
2023/10/18 07:31:46;;;;;;;;;13.33;12.00;;;;;15.64;100.00;99809.19;5038489;28;45631;-72
2023/10/18 07:34:18;;;;;;;;;13.67;8.33;;;;;15.67;100.00;99806.44;5005134;28;46537;-72
2023/10/18 07:36:45;;;;;;;;;12.67;12.33;;;;;15.70;100.00;99806.34;5018779;28;45428;-72
2023/10/18 07:39:16;;;;;;;;;15.33;13.67;;;;;15.77;100.00;99807.09;5037192;28;45453;-72
2023/10/18 07:41:46;;;;;;;;;11.33;11.33;;;;;15.82;100.00;99806.94;5038248;28;45915;-71
2023/10/18 07:44:11;;;;;;;;;13.33;11.00;;;;;15.95;100.00;99813.69;5033565;28;45621;-72
2023/10/18 07:46:40;;;;;;;;;12.67;12.67;;;;;16.02;100.00;99798.41;5037552;28;58148;-72
2023/10/18 07:49:15;;;;;;;;;13.00;12.33;;;;;16.07;100.00;99799.16;5038281;28;45507;-72
2023/10/18 07:51:48;;;;;;;;;15.00;13.67;;;;;16.16;100.00;99794.44;5037087;28;45565;-71
2023/10/18 07:54:18;;;;;;;;;14.67;13.00;;;;;16.27;100.00;99791.47;5038066;28;47568;-71
2023/10/18 07:56:50;;;;;;;;;14.67;10.67;;;;;16.30;100.00;99775.41;5034771;28;45464;-72
2023/10/18 07:59:28;;;;;;;;;14.00;11.67;;;;;16.38;100.00;99770.72;5038293;28;45485;-72
2023/10/18 08:02:12;;;;;;;;;14.00;10.67;;;;;16.44;100.00;99761.69;5025603;28;45337;-72
2023/10/18 08:04:38;;;;;;;;;12.00;10.00;;;;;16.45;100.00;99752.75;5037441;28;47336;-72
2023/10/18 08:07:04;;;;;;;;;14.00;14.00;;;;;16.50;100.00;99751.69;5037992;28;45371;-71
2023/10/18 08:09:30;;;;;;;;;16.33;13.00;;;;;16.54;100.00;99732.97;5037155;28;45423;-71
2023/10/18 08:11:56;;;;;;;;;19.33;11.67;;;;;16.59;100.00;99721.22;5039956;28;45449;-71
2023/10/18 08:14:27;;;;;;;;;19.33;17.67;;;;;16.62;100.00;99726.47;5037108;28;46664;-72
2023/10/18 08:16:55;;;;;;;;;45.75;37.00;;;;;16.65;100.00;99733.50;5036898;28;45659;-71
2023/10/18 08:19:24;;;;;;;;;16.00;13.00;;;;;16.69;100.00;99722.69;5039996;28;45451;-72
2023/10/18 08:22:22;;;;;;;;;13.33;12.33;;;;;16.73;100.00;99721.72;5034509;28;45570;-71
2023/10/18 08:24:50;;;;;;;;;16.33;11.33;;;;;16.84;100.00;99723.16;5047091;28;47595;-72
2023/10/18 08:27:16;;;;;;;;;11.67;11.67;;;;;16.88;100.00;99723.00;5037466;28;45245;-71
2023/10/18 08:29:41;;;;;;;;;17.67;11.33;;;;;16.94;100.00;99725.47;5037131;28;45576;-72
2023/10/18 08:32:51;;;;;;;;;12.33;10.00;;;;;17.00;100.00;99722.59;5037511;28;45465;-71
2023/10/18 08:35:06;;;;;;;;;11.67;11.67;;;;;17.03;100.00;99721.63;5036573;28;47187;-72
2023/10/18 08:37:31;;;;;;;;;14.67;13.33;;;;;17.06;100.00;99710.88;5032299;28;45325;-72
2023/10/18 08:39:57;;;;;;;;;8.33;8.33;;;;;17.08;100.00;99702.81;5037475;28;45370;-72
2023/10/18 08:42:25;;;;;;;;;13.00;10.33;;;;;17.12;100.00;99704.44;5036540;28;59947;-72
2023/10/18 08:44:55;;;;;;;;;12.00;10.00;;;;;17.14;100.00;99697.25;5036869;28;46954;-72
2023/10/18 08:47:23;;;;;;;;;12.00;10.67;;;;;17.17;100.00;99706.03;5036584;28;45581;-72
2023/10/18 08:49:53;;;;;;;;;12.00;9.00;;;;;17.22;100.00;99696.09;5036670;28;45516;-71
2023/10/18 08:52:23;;;;;;;;;14.33;12.00;;;;;17.27;100.00;99683.44;5019970;28;45596;-72
2023/10/18 08:54:49;;;;;;;;;11.00;9.00;;;;;17.37;100.00;99684.00;5036417;28;45428;-72
2023/10/18 08:57:34;;;;;;;;;8.67;8.67;;;;;17.46;100.00;99685.47;5036889;28;45412;-72
2023/10/18 09:02:53;;;;;;;;;11.33;8.33;;;;;17.61;100.00;99681.38;5032805;28;45693;-72
2023/10/18 09:05:23;;;;;;;;;12.00;11.00;;;;;17.68;100.00;99674.88;5036571;28;47631;-72
2023/10/18 09:07:53;;;;;;;;;10.67;8.00;;;;;17.77;100.00;99682.59;5036818;28;45409;-71
2023/10/18 09:10:46;;;;;;;;;8.33;8.33;;;;;17.84;100.00;99664.53;5036888;28;45511;-72
2023/10/18 09:16:01;;;;;;;;;10.33;8.33;;;;;17.92;100.00;99668.69;5036138;28;46621;-71
2023/10/18 09:18:30;;;;;;;;;8.00;8.00;;;;;17.97;100.00;99657.81;5036459;28;45428;-71
2023/10/18 09:21:07;;;;;;;;;10.67;9.00;;;;;18.01;100.00;99654.13;5035715;28;45354;-72
2023/10/18 09:23:32;;;;;;;;;9.33;9.00;;;;;18.08;100.00;99668.97;5039595;28;45366;-72
2023/10/18 09:26:18;;;;;;;;;14.67;10.33;;;;;18.12;100.00;99664.38;5047119;28;46057;-72
2023/10/18 09:28:44;;;;;;;;;11.67;9.33;;;;;18.19;100.00;99653.38;5036800;28;45476;-72
2023/10/18 09:31:19;;;;;;;;;9.67;8.00;;;;;18.22;100.00;99658.63;5018911;28;45247;-72
2023/10/18 09:34:07;;;;;;;;;13.00;10.00;;;;;18.26;100.00;99654.88;5035561;28;45546;-72
2023/10/18 09:36:38;;;;;;;;;10.00;10.00;;;;;18.33;100.00;99653.72;5031610;28;45568;-72
2023/10/18 09:39:07;;;;;;;;;9.33;8.00;;;;;18.41;100.00;99653.41;5036812;28;45321;-72
2023/10/18 09:41:32;;;;;;;;;9.67;8.00;;;;;18.46;100.00;99645.22;5037931;28;45487;-72
2023/10/18 09:44:00;;;;;;;;;10.33;9.67;;;;;18.51;100.00;99648.56;5035976;28;45438;-72
2023/10/18 09:46:26;;;;;;;;;11.67;10.00;;;;;18.54;100.00;99643.97;5035780;28;47628;-72
2023/10/18 09:48:53;;;;;;;;;11.00;9.33;;;;;18.59;100.00;99633.97;5035189;28;72153;-72
2023/10/18 09:51:23;;;;;;;;;10.00;8.00;;;;;18.67;100.00;99627.41;5033808;28;66196;-72
2023/10/18 09:53:51;;;;;;;;;8.33;8.00;;;;;18.67;100.00;99625.63;5035810;28;45393;-72
2023/10/18 09:56:24;;;;;;;;;12.67;8.00;;;;;18.65;100.00;99615.94;5034797;28;45748;-71
2023/10/18 09:58:51;;;;;;;;;8.67;7.67;;;;;18.58;100.00;99613.47;5035593;28;45732;-71
2023/10/18 10:01:26;;;;;;;;;11.00;9.00;;;;;18.56;100.00;99612.69;5036233;28;45403;-71
2023/10/18 10:03:56;;;;;;;;;10.00;8.33;;;;;18.55;100.00;99613.63;5035849;28;45857;-73
2023/10/18 10:06:26;;;;;;;;;9.00;9.00;;;;;18.51;100.00;99604.00;5035613;28;45999;-72
2023/10/18 10:08:55;;;;;;;;;7.00;7.00;;;;;18.48;100.00;99601.47;5035434;28;45516;-74
2023/10/18 10:11:29;;;;;;;;;10.00;9.00;;;;;18.38;100.00;99586.72;5035790;28;45325;-72
2023/10/18 10:13:58;;;;;;;;;8.33;8.33;;;;;18.35;100.00;99588.66;5035589;28;45472;-74
2023/10/18 10:16:25;;;;;;;;;8.33;8.00;;;;;18.31;100.00;99593.22;5017467;28;45724;-72
2023/10/18 10:18:52;;;;;;;;;9.00;7.67;;;;;18.30;100.00;99591.50;5016954;28;72648;-72
2023/10/18 10:21:21;;;;;;;;;11.00;8.00;;;;;18.29;100.00;99604.00;5034926;28;45289;-72
2023/10/18 10:23:50;;;;;;;;;8.33;8.33;;;;;18.32;100.00;99597.63;5033171;28;45624;-72
2023/10/18 10:26:22;;;;;;;;;7.00;6.67;;;;;18.39;100.00;99593.81;5017325;28;46501;-72
2023/10/18 10:31:53;;;;;;;;;9.33;9.00;;;;;18.53;100.00;99585.19;5035671;28;45235;-75
2023/10/18 10:34:32;;;;;;;;;8.67;8.00;;;;;18.63;100.00;99588.38;5037639;28;45479;-75
2023/10/18 10:37:11;;;;;;;;;10.33;9.00;;;;;18.76;100.00;99578.94;5026900;28;47604;-74
2023/10/18 10:39:49;;;;;;;;;10.33;9.00;;;;;18.81;100.00;99566.25;5034265;28;45503;-74
2023/10/18 10:42:46;;;;;;;;;13.00;10.00;;;;;18.87;100.00;99573.13;5019063;28;45386;-74
2023/10/18 10:45:30;;;;;;;;;8.67;8.67;;;;;18.93;100.00;99562.16;5039204;28;45497;-76
2023/10/18 10:47:57;;;;;;;;;11.33;10.33;;;;;18.93;100.00;99563.03;5036614;28;45862;-72
2023/10/18 10:51:23;;;;;;;;;9.00;9.00;;;;;18.98;100.00;99552.13;5038992;28;45503;-73
2023/10/18 10:53:58;;;;;;;;;10.00;8.67;;;;;19.02;100.00;99557.28;5043097;28;45490;-72
2023/10/18 10:56:26;;;;;;;;;10.00;10.00;;;;;19.03;100.00;99558.16;5038663;28;45584;-72
2023/10/18 10:59:22;;;;;;;;;9.33;9.00;;;;;19.06;100.00;99545.50;5039044;28;46324;-71
2023/10/18 11:04:27;;;;;;;;;13.00;10.00;;;;;19.06;100.00;99545.50;5038862;28;45440;-71
2023/10/18 11:06:56;;;;;;;;;9.00;8.00;;;;;19.04;100.00;99534.00;5034831;28;45614;-71
2023/10/18 11:09:32;;;;;;;;;10.33;9.00;;;;;19.04;100.00;99530.47;5038389;28;46516;-72
2023/10/18 11:12:01;;;;;;;;;10.67;8.00;;;;;19.06;100.00;99524.09;5035171;28;45454;-72
2023/10/18 11:14:29;;;;;;;;;9.67;7.00;;;;;19.04;100.00;99522.44;5038757;28;45286;-72
2023/10/18 11:17:17;;;;;;;;;8.67;7.00;;;;;19.05;100.00;99527.72;5037125;28;45447;-72
2023/10/18 11:19:58;;;;;;;;;9.33;8.00;;;;;19.07;100.00;99525.84;5034258;28;47224;-72
2023/10/18 11:22:24;;;;;;;;;8.00;8.00;;;;;19.11;100.00;99532.78;5035098;28;45888;-72
2023/10/18 11:24:51;;;;;;;;;8.33;7.67;;;;;19.13;100.00;99519.34;5041497;28;45366;-73
2023/10/18 11:27:25;;;;;;;;;23.00;22.00;;;;;19.14;100.00;99512.19;5033411;28;45373;-72
2023/10/18 11:29:55;;;;;;;;;8.33;8.00;;;;;19.13;100.00;99514.00;5035249;28;47914;-72
2023/10/18 11:32:27;;;;;;;;;9.00;7.67;;;;;19.14;100.00;99506.84;5038086;28;45436;-73
2023/10/18 11:35:02;;;;;;;;;9.33;8.00;;;;;19.14;100.00;99504.16;5037909;28;45450;-72
2023/10/18 11:37:34;;;;;;;;;9.67;8.00;;;;;19.13;100.00;99503.31;5036019;28;46310;-72
2023/10/18 11:40:16;;;;;;;;;7.67;6.33;;;;;19.06;100.00;99491.97;5038330;28;47682;-72
2023/10/18 11:42:54;;;;;;;;;6.67;6.67;;;;;19.02;100.00;99481.50;5037908;28;45782;-72
2023/10/18 11:45:20;;;;;;;;;7.00;7.00;;;;;19.01;100.00;99477.06;5037851;28;45410;-73
2023/10/18 11:47:50;;;;;;;;;10.33;9.33;;;;;19.02;100.00;99470.81;5036369;28;45421;-72
2023/10/18 11:50:16;;;;;;;;;13.67;12.00;;;;;19.04;100.00;99466.25;5040027;28;47640;-72
2023/10/18 11:52:41;;;;;;;;;10.00;9.00;;;;;19.02;100.00;99460.97;5037684;28;45228;-71
2023/10/18 11:55:10;;;;;;;;;13.33;11.00;;;;;19.03;100.00;99459.16;5037609;28;65865;-71
2023/10/18 11:57:41;;;;;;;;;11.00;9.00;;;;;19.00;100.00;99448.59;5037850;28;45542;-72
2023/10/18 12:02:54;;;;;;;;;12.67;11.00;;;;;18.97;100.00;99443.41;5038368;28;45479;-72
2023/10/18 12:05:27;;;;;;;;;13.67;11.00;;;;;18.96;100.00;99442.53;5045508;28;45383;-72